Time;durP1;ratioP1;P1;durP2;ratioP2;P2;SDS_P1;SDS_P2;PMS_P1;PMS_P2;Temp;Humidity;BMP_temperature;BMP_pressure;BME280_temperature;BME280_humidity;BME280_pressure;Samples;Min_cycle;Max_cycle;Signal;HPM_P1;HPM_P2
2023/04/15 00:01:24;;;;;;;9.23;4.10;;;;;;;;;;6236690;22;20394;-78
2023/04/15 00:03:53;;;;;;;6.43;3.65;;;;;;;;;;6238812;22;20035;-79
2023/04/15 00:06:22;;;;;;;6.50;3.30;;;;;;;;;;6235683;23;20012;-78
2023/04/15 00:08:48;;;;;;;7.50;3.70;;;;;;;;;;6239252;22;20006;-78
2023/04/15 00:11:13;;;;;;;6.38;3.33;;;;;;;;;;6239995;22;20000;-79
2023/04/15 00:13:39;;;;;;;7.57;3.40;;;;;;;;;;6239415;22;20000;-79
2023/04/15 00:16:07;;;;;;;6.15;3.70;;;;;;;;;;6237682;23;20015;-79
2023/04/15 00:18:32;;;;;;;7.93;4.13;;;;;;;;;;6235228;23;20062;-78
2023/04/15 00:20:58;;;;;;;7.63;3.63;;;;;;;;;;6236566;23;20004;-79
2023/04/15 00:23:23;;;;;;;8.23;3.92;;;;;;;;;;6236828;23;20015;-78
2023/04/15 00:25:49;;;;;;;8.90;3.83;;;;;;;;;;6239845;22;20104;-79
2023/04/15 00:28:16;;;;;;;7.55;3.63;;;;;;;;;;6236617;22;20012;-79
2023/04/15 00:30:41;;;;;;;6.05;3.63;;;;;;;;;;6242254;22;20415;-79
2023/04/15 00:33:07;;;;;;;6.20;3.65;;;;;;;;;;6242202;22;20004;-78
2023/04/15 00:35:33;;;;;;;6.68;4.10;;;;;;;;;;6241447;22;20107;-78
2023/04/15 00:37:58;;;;;;;7.55;3.92;;;;;;;;;;6240205;23;20058;-79
2023/04/15 00:40:25;;;;;;;5.85;3.88;;;;;;;;;;6243405;23;20004;-79
2023/04/15 00:42:51;;;;;;;7.68;4.38;;;;;;;;;;6242846;23;20338;-80
2023/04/15 00:45:16;;;;;;;7.80;4.38;;;;;;;;;;6246237;22;20007;-78
2023/04/15 00:47:42;;;;;;;7.85;3.80;;;;;;;;;;6242323;23;20011;-79
2023/04/15 00:50:08;;;;;;;6.45;3.83;;;;;;;;;;6243323;22;20484;-79
2023/04/15 00:52:34;;;;;;;6.55;3.80;;;;;;;;;;6242652;22;20008;-78
2023/04/15 00:54:59;;;;;;;9.15;3.95;;;;;;;;;;6241302;23;20503;-79
2023/04/15 00:57:25;;;;;;;6.35;3.92;;;;;;;;;;6241093;22;20008;-79
2023/04/15 00:59:51;;;;;;;7.38;3.78;;;;;;;;;;6239450;23;20147;-79
2023/04/15 01:02:17;;;;;;;6.68;3.88;;;;;;;;;;6242459;22;20053;-79
2023/04/15 01:04:42;;;;;;;6.05;3.95;;;;;;;;;;6240496;22;20000;-78
2023/04/15 01:07:08;;;;;;;6.20;3.72;;;;;;;;;;6239160;23;20012;-79
2023/04/15 01:09:33;;;;;;;7.07;4.10;;;;;;;;;;6241928;23;20000;-79
2023/04/15 01:11:58;;;;;;;8.52;3.70;;;;;;;;;;6243598;22;20000;-79
2023/04/15 01:14:24;;;;;;;6.97;3.67;;;;;;;;;;6241395;23;20011;-79
2023/04/15 01:16:51;;;;;;;6.72;3.83;;;;;;;;;;6241260;23;20015;-79
2023/04/15 01:19:17;;;;;;;6.63;4.10;;;;;;;;;;6242452;23;20431;-79
2023/04/15 01:21:43;;;;;;;6.07;4.10;;;;;;;;;;6242067;23;20034;-78
2023/04/15 01:24:10;;;;;;;5.78;3.75;;;;;;;;;;6240951;23;20034;-78
2023/04/15 01:26:39;;;;;;;6.20;4.20;;;;;;;;;;6240673;23;20087;-79
2023/04/15 01:29:05;;;;;;;7.68;4.10;;;;;;;;;;6238157;23;20478;-78
2023/04/15 01:31:31;;;;;;;6.28;3.90;;;;;;;;;;6242886;23;20066;-79
2023/04/15 01:33:57;;;;;;;6.78;4.28;;;;;;;;;;6243086;22;20338;-79
2023/04/15 01:36:22;;;;;;;6.53;4.20;;;;;;;;;;6243617;23;20465;-79
2023/04/15 01:38:48;;;;;;;5.15;3.90;;;;;;;;;;6244500;22;20000;-79
2023/04/15 01:41:13;;;;;;;7.40;4.30;;;;;;;;;;6244923;22;20307;-79
2023/04/15 01:43:39;;;;;;;7.65;4.53;;;;;;;;;;6242191;23;20007;-79
2023/04/15 01:46:05;;;;;;;7.85;4.45;;;;;;;;;;6244285;22;20046;-79
2023/04/15 01:48:31;;;;;;;6.88;4.40;;;;;;;;;;6244288;22;20075;-79
2023/04/15 01:50:57;;;;;;;8.27;4.88;;;;;;;;;;6242444;23;20011;-79
2023/04/15 01:53:24;;;;;;;7.60;4.82;;;;;;;;;;6242180;22;20004;-78
2023/04/15 01:55:50;;;;;;;6.63;4.18;;;;;;;;;;6241952;23;20066;-77
2023/04/15 01:58:15;;;;;;;6.82;4.38;;;;;;;;;;6243819;22;20079;-79
2023/04/15 02:00:41;;;;;;;10.00;4.90;;;;;;;;;;6241819;23;20027;-79
2023/04/15 02:03:07;;;;;;;8.70;5.45;;;;;;;;;;6243944;22;20341;-78
2023/04/15 02:05:32;;;;;;;6.40;4.50;;;;;;;;;;6239842;23;20334;-79
2023/04/15 02:07:58;;;;;;;7.32;5.40;;;;;;;;;;6242486;23;20004;-78
2023/04/15 02:10:23;;;;;;;7.13;4.88;;;;;;;;;;6241795;22;20008;-79
2023/04/15 02:12:49;;;;;;;10.48;5.03;;;;;;;;;;6243858;22;20419;-79
2023/04/15 02:15:14;;;;;;;7.15;5.03;;;;;;;;;;6241744;22;20015;-79
2023/04/15 02:17:39;;;;;;;8.73;4.93;;;;;;;;;;6241106;23;20307;-79
2023/04/15 02:20:05;;;;;;;7.32;4.32;;;;;;;;;;6240937;22;20000;-78
2023/04/15 02:22:31;;;;;;;10.07;5.30;;;;;;;;;;6239747;23;20004;-78
2023/04/15 02:24:56;;;;;;;6.90;4.70;;;;;;;;;;6242113;23;20014;-79
2023/04/15 02:27:22;;;;;;;9.93;5.38;;;;;;;;;;6241246;22;20445;-78
2023/04/15 02:29:49;;;;;;;8.02;5.30;;;;;;;;;;6241586;23;20427;-79
2023/04/15 02:32:15;;;;;;;10.75;5.00;;;;;;;;;;6241089;23;20032;-78
2023/04/15 02:34:41;;;;;;;8.15;5.20;;;;;;;;;;6242136;22;20469;-79
2023/04/15 02:37:12;;;;;;;7.00;4.57;;;;;;;;;;6242461;23;20004;-79
2023/04/15 02:39:37;;;;;;;9.38;5.07;;;;;;;;;;6244486;22;20441;-79
2023/04/15 02:42:04;;;;;;;7.78;4.65;;;;;;;;;;6241904;23;20043;-79
2023/04/15 02:44:31;;;;;;;7.20;4.40;;;;;;;;;;6243070;23;20004;-79
2023/04/15 02:46:57;;;;;;;8.55;5.03;;;;;;;;;;6243379;22;20010;-79
2023/04/15 02:49:23;;;;;;;9.93;4.88;;;;;;;;;;6242740;22;20337;-79
2023/04/15 02:51:48;;;;;;;6.13;4.30;;;;;;;;;;6242783;22;20099;-79
2023/04/15 02:54:21;;;;;;;9.15;4.82;;;;;;;;;;6242772;22;20426;-79
2023/04/15 02:56:47;;;;;;;;;;;;;;;;;;6241946;22;20008;-79
2023/04/15 02:59:12;;;;;;;6.85;4.28;;;;;;;;;;6240690;23;19986;-77
2023/04/15 03:01:37;;;;;;;6.20;4.30;;;;;;;;;;6240580;22;20000;-79
2023/04/15 03:04:03;;;;;;;6.82;4.47;;;;;;;;;;6240758;23;20038;-79
2023/04/15 03:06:28;;;;;;;6.80;4.45;;;;;;;;;;6242794;22;20004;-79
2023/04/15 03:08:55;;;;;;;7.10;4.35;;;;;;;;;;6244727;22;20003;-79
2023/04/15 03:11:21;;;;;;;6.88;4.80;;;;;;;;;;6241231;23;20431;-79
2023/04/15 03:13:46;;;;;;;8.63;4.93;;;;;;;;;;6241732;23;20039;-79
2023/04/15 03:16:12;;;;;;;7.38;4.80;;;;;;;;;;6240385;23;20004;-78
2023/04/15 03:18:37;;;;;;;8.68;4.85;;;;;;;;;;6243948;22;20077;-79
2023/04/15 03:21:03;;;;;;;7.40;5.18;;;;;;;;;;6241829;23;20445;-79
2023/04/15 03:23:30;;;;;;;8.88;4.82;;;;;;;;;;6244075;22;20000;-79
2023/04/15 03:25:56;;;;;;;9.73;5.05;;;;;;;;;;6241171;23;20445;-80
2023/04/15 03:28:22;;;;;;;7.63;4.55;;;;;;;;;;6242652;23;20326;-79
2023/04/15 03:30:47;;;;;;;7.60;4.72;;;;;;;;;;6241182;23;20046;-78
2023/04/15 03:33:13;;;;;;;7.50;5.05;;;;;;;;;;6242653;22;20031;-78
2023/04/15 03:35:38;;;;;;;8.88;4.57;;;;;;;;;;6241770;23;20008;-79
2023/04/15 03:38:03;;;;;;;9.52;5.45;;;;;;;;;;6243780;22;20027;-79
2023/04/15 03:40:29;;;;;;;8.32;4.93;;;;;;;;;;6242540;23;20461;-79
2023/04/15 03:42:54;;;;;;;8.43;4.72;;;;;;;;;;6244473;22;20007;-79
2023/04/15 03:45:20;;;;;;;9.75;5.50;;;;;;;;;;6243108;23;20008;-79
2023/04/15 03:47:45;;;;;;;8.65;4.90;;;;;;;;;;6242298;23;20389;-79
2023/04/15 03:50:11;;;;;;;8.68;4.95;;;;;;;;;;6242801;23;20078;-78
2023/04/15 03:52:36;;;;;;;7.13;4.78;;;;;;;;;;6244709;22;20082;-78
2023/04/15 03:55:02;;;;;;;7.63;5.00;;;;;;;;;;6243421;22;20000;-79
2023/04/15 03:57:27;;;;;;;8.77;5.40;;;;;;;;;;6242194;23;20150;-79
2023/04/15 03:59:53;;;;;;;8.35;4.93;;;;;;;;;;6242136;23;20005;-78
2023/04/15 04:02:18;;;;;;;7.97;4.70;;;;;;;;;;6243287;23;20496;-79
2023/04/15 04:04:43;;;;;;;7.70;5.03;;;;;;;;;;6242498;22;20015;-79
2023/04/15 04:07:14;;;;;;;7.40;4.85;;;;;;;;;;6244020;22;20395;-78
2023/04/15 04:09:40;;;;;;;8.35;4.93;;;;;;;;;;6241744;23;20338;-78
2023/04/15 04:12:06;;;;;;;7.10;4.60;;;;;;;;;;6243975;23;20000;-79
2023/04/15 04:14:31;;;;;;;7.55;4.50;;;;;;;;;;6244119;23;20419;-79
2023/04/15 04:16:57;;;;;;;8.35;5.30;;;;;;;;;;6245296;22;20029;-79
2023/04/15 04:19:22;;;;;;;8.50;5.10;;;;;;;;;;6244017;23;20032;-79
2023/04/15 04:21:47;;;;;;;8.00;4.63;;;;;;;;;;6245567;22;20007;-78
2023/04/15 04:24:13;;;;;;;8.25;4.60;;;;;;;;;;6245680;22;19999;-79
2023/04/15 04:26:38;;;;;;;8.77;4.68;;;;;;;;;;6243855;22;20069;-79
2023/04/15 04:29:03;;;;;;;6.68;4.70;;;;;;;;;;6243110;23;20015;-79
2023/04/15 04:31:29;;;;;;;7.05;4.40;;;;;;;;;;6244346;23;20008;-79
2023/04/15 04:33:54;;;;;;;7.40;4.47;;;;;;;;;;6244851;22;20000;-79
2023/04/15 04:36:19;;;;;;;7.57;4.90;;;;;;;;;;6243358;23;20078;-79
2023/04/15 04:38:45;;;;;;;8.18;5.07;;;;;;;;;;6240851;23;20377;-79
2023/04/15 04:41:10;;;;;;;7.18;4.55;;;;;;;;;;6240949;22;20008;-78
2023/04/15 04:43:36;;;;;;;7.85;4.72;;;;;;;;;;6241532;22;20007;-79
2023/04/15 04:46:01;;;;;;;9.18;5.10;;;;;;;;;;6244307;22;20000;-79
2023/04/15 04:48:26;;;;;;;8.02;4.95;;;;;;;;;;6240810;23;20029;-79
2023/04/15 04:50:52;;;;;;;7.75;4.95;;;;;;;;;;6243224;22;20307;-79
2023/04/15 04:53:17;;;;;;;6.95;4.43;;;;;;;;;;6242043;23;20004;-79
2023/04/15 04:55:43;;;;;;;7.70;4.68;;;;;;;;;;6240772;23;19999;-79
2023/04/15 04:58:08;;;;;;;7.90;4.72;;;;;;;;;;6240546;22;20312;-79
2023/04/15 05:00:33;;;;;;;8.93;5.00;;;;;;;;;;6240565;23;20392;-78
2023/04/15 05:02:59;;;;;;;8.85;4.93;;;;;;;;;;6243475;23;20039;-79
2023/04/15 05:05:24;;;;;;;8.50;5.43;;;;;;;;;;6241638;23;20461;-79
2023/04/15 05:07:50;;;;;;;8.00;4.80;;;;;;;;;;6237915;23;20015;-79
2023/04/15 05:10:16;;;;;;;8.38;4.50;;;;;;;;;;6239688;22;20098;-78
2023/04/15 05:12:42;;;;;;;8.05;4.97;;;;;;;;;;6240312;22;20038;-79
2023/04/15 05:15:08;;;;;;;8.60;5.20;;;;;;;;;;6238608;22;20012;-78
2023/04/15 05:17:34;;;;;;;9.48;4.78;;;;;;;;;;6242483;23;20004;-79
2023/04/15 05:20:00;;;;;;;8.65;5.43;;;;;;;;;;6243572;23;20012;-79
2023/04/15 05:22:25;;;;;;;7.30;4.70;;;;;;;;;;6242302;22;20028;-79
2023/04/15 05:24:51;;;;;;;7.65;5.03;;;;;;;;;;6239305;23;20011;-79
2023/04/15 05:27:17;;;;;;;7.03;4.60;;;;;;;;;;6241242;22;20004;-79
2023/04/15 05:29:43;;;;;;;7.80;4.80;;;;;;;;;;6241421;23;19996;-79
2023/04/15 05:32:08;;;;;;;7.75;4.97;;;;;;;;;;6240065;23;20496;-79
2023/04/15 05:34:34;;;;;;;7.40;4.90;;;;;;;;;;6242346;23;20042;-78
2023/04/15 05:36:59;;;;;;;7.35;4.88;;;;;;;;;;6241495;23;20003;-79
2023/04/15 05:39:25;;;;;;;8.52;4.97;;;;;;;;;;6240754;23;20354;-77
2023/04/15 05:41:50;;;;;;;7.05;4.63;;;;;;;;;;6242812;22;20054;-79
2023/04/15 05:44:16;;;;;;;7.65;5.10;;;;;;;;;;6241330;22;20028;-79
2023/04/15 05:46:42;;;;;;;8.15;5.25;;;;;;;;;;6241285;23;20011;-79
2023/04/15 05:49:07;;;;;;;8.98;5.07;;;;;;;;;;6240452;23;20000;-79
2023/04/15 05:51:32;;;;;;;7.43;5.10;;;;;;;;;;6237413;23;20012;-78
2023/04/15 05:53:58;;;;;;;9.20;5.57;;;;;;;;;;6241471;23;20055;-79
2023/04/15 05:56:25;;;;;;;9.50;5.50;;;;;;;;;;6242258;23;20015;-78
2023/04/15 05:58:51;;;;;;;8.00;5.53;;;;;;;;;;6243620;23;20019;-78
2023/04/15 06:01:16;;;;;;;7.95;5.22;;;;;;;;;;6240689;23;20031;-79
2023/04/15 06:03:42;;;;;;;11.23;5.28;;;;;;;;;;6243285;23;20008;-78
2023/04/15 06:06:07;;;;;;;10.00;4.95;;;;;;;;;;6242767;22;20330;-77
2023/04/15 06:08:33;;;;;;;8.40;5.03;;;;;;;;;;6241437;23;20022;-79
2023/04/15 06:10:59;;;;;;;7.82;5.18;;;;;;;;;;6243190;22;20015;-79
2023/04/15 06:13:25;;;;;;;8.23;4.93;;;;;;;;;;6242181;23;20422;-79
2023/04/15 06:15:50;;;;;;;8.27;5.30;;;;;;;;;;6242410;22;20058;-78
2023/04/15 06:18:15;;;;;;;9.02;5.30;;;;;;;;;;6242176;23;20400;-79
2023/04/15 06:20:41;;;;;;;8.05;5.30;;;;;;;;;;6241568;23;20091;-78
2023/04/15 06:23:06;;;;;;;8.07;5.40;;;;;;;;;;6238916;22;20036;-78
2023/04/15 06:25:31;;;;;;;7.68;5.20;;;;;;;;;;6242645;22;20004;-79
2023/04/15 06:27:56;;;;;;;7.78;5.00;;;;;;;;;;6239851;23;20055;-79
2023/04/15 06:30:22;;;;;;;10.13;5.38;;;;;;;;;;6246771;23;20382;-75
2023/04/15 06:32:47;;;;;;;9.73;5.82;;;;;;;;;;6249188;23;20426;-75
2023/04/15 06:35:13;;;;;;;8.80;5.57;;;;;;;;;;6248760;22;20062;-75
2023/04/15 06:37:38;;;;;;;8.15;5.40;;;;;;;;;;6251668;23;20034;-75
2023/04/15 06:40:04;;;;;;;7.88;5.47;;;;;;;;;;6257281;22;20027;-74
2023/04/15 06:42:30;;;;;;;11.10;5.43;;;;;;;;;;6253652;23;20004;-75
2023/04/15 06:44:55;;;;;;;8.60;5.22;;;;;;;;;;6256248;23;20000;-74
2023/04/15 06:47:21;;;;;;;8.40;5.38;;;;;;;;;;6250665;23;20000;-74
2023/04/15 06:49:46;;;;;;;8.30;5.30;;;;;;;;;;6252439;22;20111;-74
2023/04/15 06:52:11;;;;;;;8.93;5.13;;;;;;;;;;6250773;22;20008;-74
2023/04/15 06:54:37;;;;;;;7.43;4.47;;;;;;;;;;6250976;22;19999;-74
2023/04/15 06:57:02;;;;;;;9.43;4.93;;;;;;;;;;6253441;23;20015;-74
2023/04/15 06:59:28;;;;;;;7.97;5.10;;;;;;;;;;6254810;22;20011;-74
2023/04/15 07:01:53;;;;;;;8.82;5.38;;;;;;;;;;6249331;23;20011;-75
2023/04/15 07:04:19;;;;;;;10.35;5.97;;;;;;;;;;6250511;23;20422;-75
2023/04/15 07:06:44;;;;;;;10.85;6.20;;;;;;;;;;6251306;22;20035;-74
2023/04/15 07:09:10;;;;;;;10.57;6.00;;;;;;;;;;6251941;23;20453;-75
2023/04/15 07:11:35;;;;;;;8.65;6.18;;;;;;;;;;6252427;23;20457;-75
2023/04/15 07:14:01;;;;;;;9.80;5.97;;;;;;;;;;6252597;23;20012;-75
2023/04/15 07:16:26;;;;;;;9.15;6.20;;;;;;;;;;6255034;22;20004;-74
2023/04/15 07:18:52;;;;;;;10.63;6.45;;;;;;;;;;6253462;22;20083;-74
2023/04/15 07:21:17;;;;;;;9.02;5.97;;;;;;;;;;6253912;23;20083;-74
2023/04/15 07:23:42;;;;;;;10.15;6.68;;;;;;;;;;6251338;23;20007;-74
2023/04/15 07:26:08;;;;;;;10.43;6.55;;;;;;;;;;6254665;22;20355;-75
2023/04/15 07:28:34;;;;;;;9.85;5.80;;;;;;;;;;6252439;23;20000;-74
2023/04/15 07:30:59;;;;;;;8.88;6.22;;;;;;;;;;6249686;23;20000;-74
2023/04/15 07:33:25;;;;;;;10.88;6.30;;;;;;;;;;6253242;22;20008;-74
2023/04/15 07:35:50;;;;;;;9.88;6.47;;;;;;;;;;6246046;23;20015;-74
2023/04/15 07:38:16;;;;;;;14.30;6.85;;;;;;;;;;6250884;23;20087;-74
2023/04/15 07:40:41;;;;;;;9.63;6.25;;;;;;;;;;6252855;22;20059;-74
2023/04/15 07:43:07;;;;;;;9.65;6.03;;;;;;;;;;6249584;23;20007;-74
2023/04/15 07:45:34;;;;;;;9.15;6.28;;;;;;;;;;6249595;22;20005;-75
2023/04/15 07:48:00;;;;;;;10.27;6.40;;;;;;;;;;6250458;23;20066;-76
2023/04/15 07:50:26;;;;;;;10.07;6.10;;;;;;;;;;6251760;22;20039;-75
2023/04/15 07:52:51;;;;;;;10.43;6.78;;;;;;;;;;6251905;22;20338;-74
2023/04/15 07:55:20;;;;;;;8.68;5.88;;;;;;;;;;6247929;23;20436;-74
2023/04/15 07:57:46;;;;;;;8.65;5.65;;;;;;;;;;6248665;22;20004;-74
2023/04/15 08:00:12;;;;;;;9.73;6.22;;;;;;;;;;6246537;23;20018;-77
2023/04/15 08:02:37;;;;;;;9.40;6.18;;;;;;;;;;6248905;23;20012;-76
2023/04/15 08:05:03;;;;;;;9.05;5.63;;;;;;;;;;6254191;22;20003;-76
2023/04/15 08:07:30;;;;;;;7.13;4.63;;;;;;;;;;6255761;23;20065;-75
2023/04/15 08:09:55;;;;;;;8.43;4.60;;;;;;;;;;6257167;23;20011;-74
2023/04/15 08:12:21;;;;;;;6.88;3.95;;;;;;;;;;6260346;22;20008;-74
2023/04/15 08:14:46;;;;;;;6.95;4.35;;;;;;;;;;6263588;22;20004;-75
2023/04/15 08:17:12;;;;;;;8.05;3.80;;;;;;;;;;6263931;23;20016;-74
2023/04/15 08:19:37;;;;;;;7.35;3.85;;;;;;;;;;6262659;22;20008;-76
2023/04/15 08:22:02;;;;;;;5.45;3.50;;;;;;;;;;6263476;22;20027;-75
2023/04/15 08:24:29;;;;;;;5.97;3.83;;;;;;;;;;6260259;23;20008;-75
2023/04/15 08:26:55;;;;;;;6.97;4.10;;;;;;;;;;6259068;23;20004;-77
2023/04/15 08:29:20;;;;;;;7.45;4.22;;;;;;;;;;6259080;22;20004;-75
2023/04/15 08:31:46;;;;;;;6.32;3.83;;;;;;;;;;6256678;23;20316;-74
2023/04/15 08:34:12;;;;;;;5.97;4.03;;;;;;;;;;6264028;22;20011;-77
2023/04/15 08:36:37;;;;;;;5.95;3.50;;;;;;;;;;6266626;22;20000;-75
2023/04/15 08:39:03;;;;;;;6.70;3.85;;;;;;;;;;6268657;23;19996;-75
2023/04/15 08:41:38;;;;;;;7.57;4.03;;;;;;;;;;6265106;22;20441;-76
2023/04/15 08:44:05;;;;;;;10.15;3.88;;;;;;;;;;6264597;23;20363;-75
2023/04/15 08:46:33;;;;;;;5.75;3.63;;;;;;;;;;6266511;22;20004;-78
2023/04/15 08:48:59;;;;;;;8.38;4.13;;;;;;;;;;6252569;23;20004;-75
2023/04/15 08:51:26;;;;;;;6.53;3.80;;;;;;;;;;6253607;22;20004;-75
2023/04/15 08:53:53;;;;;;;7.10;3.85;;;;;;;;;;6253228;23;21075;-75
2023/04/15 08:56:23;;;;;;;6.40;3.80;;;;;;;;;;6248878;23;20034;-75
2023/04/15 08:58:49;;;;;;;5.82;3.33;;;;;;;;;;6251086;23;20493;-75
2023/04/15 09:01:16;;;;;;;6.78;3.80;;;;;;;;;;6249685;23;20004;-76
2023/04/15 09:03:41;;;;;;;5.57;3.13;;;;;;;;;;6248418;23;20014;-75
2023/04/15 09:06:07;;;;;;;6.50;3.72;;;;;;;;;;6253948;22;20008;-77
2023/04/15 09:08:36;;;;;;;6.55;3.13;;;;;;;;;;6252356;22;20016;-75
2023/04/15 09:11:04;;;;;;;6.10;2.83;;;;;;;;;;6252902;22;20280;-76
2023/04/15 09:13:30;;;;;;;4.68;2.80;;;;;;;;;;6253149;23;20019;-75
2023/04/15 09:15:58;;;;;;;5.30;2.90;;;;;;;;;;6250141;23;20019;-79
2023/04/15 09:18:28;;;;;;;8.43;2.92;;;;;;;;;;6254246;23;20015;-75
2023/04/15 09:20:54;;;;;;;8.65;3.67;;;;;;;;;;6247429;23;20011;-78
2023/04/15 09:23:20;;;;;;;6.68;3.45;;;;;;;;;;6253180;23;20008;-77
2023/04/15 09:25:45;;;;;;;8.85;3.40;;;;;;;;;;6256090;23;20012;-78
2023/04/15 09:28:11;;;;;;;7.20;3.28;;;;;;;;;;6257377;23;20019;-77
2023/04/15 09:30:36;;;;;;;5.13;3.08;;;;;;;;;;6260439;22;20065;-77
2023/04/15 09:33:07;;;;;;;5.18;2.88;;;;;;;;;;6257625;23;19999;-78
2023/04/15 09:35:33;;;;;;;5.40;2.83;;;;;;;;;;6262625;22;20354;-78
2023/04/15 09:38:04;;;;;;;8.45;3.00;;;;;;;;;;6262263;23;20264;-78
2023/04/15 09:40:38;;;;;;;5.63;2.92;;;;;;;;;;6260036;23;20000;-77
2023/04/15 09:43:05;;;;;;;5.70;2.63;;;;;;;;;;6263413;23;19992;-77
2023/04/15 09:45:32;;;;;;;6.03;2.70;;;;;;;;;;6258871;23;20388;-79
2023/04/15 09:47:59;;;;;;;5.15;2.83;;;;;;;;;;6257235;23;20042;-77
2023/04/15 09:50:28;;;;;;;5.85;2.60;;;;;;;;;;6256175;23;20008;-77
2023/04/15 09:52:54;;;;;;;6.60;2.67;;;;;;;;;;6259513;22;20438;-76
2023/04/15 09:55:20;;;;;;;8.88;2.25;;;;;;;;;;6259407;23;19992;-77
2023/04/15 09:57:48;;;;;;;4.40;2.42;;;;;;;;;;6261890;23;20022;-78
2023/04/15 10:00:14;;;;;;;4.40;2.60;;;;;;;;;;6260011;22;20015;-77
2023/04/15 10:02:43;;;;;;;4.35;2.70;;;;;;;;;;6258841;23;20000;-77
2023/04/15 10:05:14;;;;;;;5.05;2.95;;;;;;;;;;6263392;22;20003;-77
2023/04/15 10:07:40;;;;;;;4.80;2.85;;;;;;;;;;6265923;22;19988;-78
2023/04/15 10:59:15;;;;;;;3.00;1.75;;;;;;;;;;6256592;22;20034;-78
2023/04/15 11:01:58;;;;;;;6.90;1.90;;;;;;;;;;6267243;22;20000;-78
2023/04/15 11:04:56;;;;;;;3.28;1.80;;;;;;;;;;6264992;22;19996;-78
2023/04/15 11:07:43;;;;;;;3.30;1.88;;;;;;;;;;6264056;22;20046;-79
2023/04/15 11:23:05;;;;;;;3.33;2.00;;;;;;;;;;6205582;22;20217;-76
2023/04/15 11:25:32;;;;;;;4.00;1.85;;;;;;;;;;6265834;22;20004;-76
2023/04/15 11:27:59;;;;;;;3.70;2.00;;;;;;;;;;6264707;22;20027;-77
2023/04/15 11:30:27;;;;;;;5.57;1.98;;;;;;;;;;6264424;22;20330;-79
2023/04/15 11:32:54;;;;;;;3.08;1.80;;;;;;;;;;6264227;22;19988;-76
2023/04/15 11:35:20;;;;;;;5.45;2.00;;;;;;;;;;6265507;22;20026;-76
2023/04/15 12:03:48;;;;;;;4.40;2.63;;;;;;;;;;6220710;22;20397;-77
2023/04/15 12:06:21;;;;;;;5.43;2.30;;;;;;;;;;6262644;22;20003;-76
2023/04/15 12:11:28;;;;;;;3.83;2.35;;;;;;;;;;6243958;22;20018;-77
2023/04/15 12:14:04;;;;;;;3.60;2.22;;;;;;;;;;6261581;22;20046;-77
2023/04/15 12:16:29;;;;;;;7.88;2.53;;;;;;;;;;6260693;23;20020;-77
2023/04/15 12:18:59;;;;;;;4.55;2.20;;;;;;;;;;6263676;23;20004;-77
2023/04/15 12:21:28;;;;;;;7.65;2.63;;;;;;;;;;6261339;22;20011;-77
2023/04/15 12:23:55;;;;;;;8.77;2.55;;;;;;;;;;6253115;22;20007;-74
2023/04/15 12:26:27;;;;;;;5.38;2.10;;;;;;;;;;6250791;23;20365;-76
2023/04/15 12:29:00;;;;;;;5.25;2.03;;;;;;;;;;6250485;23;20004;-76
2023/04/15 12:31:26;;;;;;;4.88;2.20;;;;;;;;;;6250327;22;20031;-77
2023/04/15 12:33:54;;;;;;;4.05;2.00;;;;;;;;;;6249436;23;20059;-78
2023/04/15 12:36:20;;;;;;;5.65;2.13;;;;;;;;;;6237063;23;20089;-77
2023/04/15 12:38:45;;;;;;;4.85;2.10;;;;;;;;;;6230237;22;20081;-77
2023/04/15 12:41:10;;;;;;;3.38;1.85;;;;;;;;;;6234062;22;20083;-77
2023/04/15 12:43:36;;;;;;;4.40;1.85;;;;;;;;;;6227305;23;20003;-78
2023/04/15 12:46:01;;;;;;;3.17;1.80;;;;;;;;;;6232960;23;20012;-78
2023/04/15 12:48:27;;;;;;;3.53;1.98;;;;;;;;;;6232330;23;20008;-78
2023/04/15 12:50:52;;;;;;;3.33;1.80;;;;;;;;;;6234306;22;20011;-79
2023/04/15 12:53:17;;;;;;;3.90;1.77;;;;;;;;;;6236488;22;20055;-79
2023/04/15 12:55:43;;;;;;;3.80;1.75;;;;;;;;;;6233229;22;20497;-78
2023/04/15 12:58:10;;;;;;;3.70;1.67;;;;;;;;;;6234060;23;20692;-79
2023/04/15 13:00:36;;;;;;;3.47;1.80;;;;;;;;;;6235154;22;20062;-78
2023/04/15 13:03:01;;;;;;;2.65;1.80;;;;;;;;;;6234760;22;20389;-78
2023/04/15 13:05:26;;;;;;;2.95;1.73;;;;;;;;;;6236302;23;20318;-78
2023/04/15 13:07:52;;;;;;;3.47;1.67;;;;;;;;;;6232676;23;20003;-79
2023/04/15 13:10:17;;;;;;;4.47;1.50;;;;;;;;;;6232183;23;20091;-78
2023/04/15 13:12:45;;;;;;;3.38;1.80;;;;;;;;;;6235861;23;20078;-78
2023/04/15 13:15:11;;;;;;;3.88;1.50;;;;;;;;;;6231861;23;20038;-78
2023/04/15 13:17:37;;;;;;;3.67;1.73;;;;;;;;;;6231060;23;20043;-78
2023/04/15 13:20:03;;;;;;;3.20;1.90;;;;;;;;;;6234104;23;20225;-79
2023/04/15 13:22:28;;;;;;;3.22;1.65;;;;;;;;;;6230044;23;20035;-78
2023/04/15 13:24:53;;;;;;;1.98;1.42;;;;;;;;;;6228514;22;20008;-77
2023/04/15 13:27:19;;;;;;;3.47;1.48;;;;;;;;;;6228596;23;20004;-78
2023/04/15 13:29:44;;;;;;;3.88;1.90;;;;;;;;;;6231649;23;20004;-78
2023/04/15 13:32:10;;;;;;;3.72;1.77;;;;;;;;;;6231363;22;20158;-77
2023/04/15 13:34:35;;;;;;;2.88;1.65;;;;;;;;;;6231925;22;20316;-77
2023/04/15 13:37:07;;;;;;;3.63;1.70;;;;;;;;;;6230827;23;20410;-78
2023/04/15 13:39:33;;;;;;;3.27;1.63;;;;;;;;;;6231139;22;20000;-77
2023/04/15 13:41:58;;;;;;;2.65;1.30;;;;;;;;;;6234155;22;20225;-78
2023/04/15 13:44:23;;;;;;;2.50;1.42;;;;;;;;;;6231089;22;20053;-77
2023/04/15 13:46:49;;;;;;;2.75;1.25;;;;;;;;;;6231868;22;20004;-78
2023/04/15 13:49:14;;;;;;;1.92;1.10;;;;;;;;;;6232188;23;20003;-78
2023/04/15 13:51:40;;;;;;;3.03;1.42;;;;;;;;;;6235240;22;20015;-78
2023/04/15 13:54:06;;;;;;;3.20;1.30;;;;;;;;;;6231130;23;20435;-78
2023/04/15 13:56:31;;;;;;;2.58;1.50;;;;;;;;;;6234232;22;20008;-78
2023/04/15 13:59:00;;;;;;;2.92;1.30;;;;;;;;;;6234468;22;20031;-77
2023/04/15 14:01:26;;;;;;;2.17;1.20;;;;;;;;;;6232250;22;20018;-78
2023/04/15 14:03:51;;;;;;;3.40;1.33;;;;;;;;;;6226108;23;20405;-78
2023/04/15 14:06:17;;;;;;;2.25;1.30;;;;;;;;;;6228191;22;20004;-77
2023/04/15 14:08:42;;;;;;;3.22;1.25;;;;;;;;;;6231393;23;20008;-78
2023/04/15 14:11:08;;;;;;;1.67;1.05;;;;;;;;;;6230457;23;20011;-78
2023/04/15 14:13:33;;;;;;;3.38;1.30;;;;;;;;;;6232875;22;20019;-78
2023/04/15 14:15:59;;;;;;;2.72;1.25;;;;;;;;;;6232940;23;20015;-78
2023/04/15 14:18:24;;;;;;;2.15;1.25;;;;;;;;;;6232505;22;20362;-79
2023/04/15 14:20:50;;;;;;;2.20;1.30;;;;;;;;;;6232165;22;20378;-78
2023/04/15 14:23:15;;;;;;;1.88;1.10;;;;;;;;;;6227925;23;20130;-78
2023/04/15 14:25:41;;;;;;;2.05;1.00;;;;;;;;;;6230152;22;20543;-78
2023/04/15 14:28:06;;;;;;;1.42;0.90;;;;;;;;;;6234478;23;20381;-77
2023/04/15 14:30:32;;;;;;;3.58;1.10;;;;;;;;;;6232253;23;20710;-78
2023/04/15 14:32:57;;;;;;;3.20;1.45;;;;;;;;;;6231410;23;20445;-78
2023/04/15 14:35:25;;;;;;;2.17;1.10;;;;;;;;;;6231343;23;20030;-77
2023/04/15 14:37:51;;;;;;;4.07;1.30;;;;;;;;;;6233922;22;20004;-77
2023/04/15 14:40:16;;;;;;;1.90;1.20;;;;;;;;;;6232807;23;20008;-77
2023/04/15 14:42:42;;;;;;;3.25;1.20;;;;;;;;;;6234140;22;20111;-78
2023/04/15 14:45:08;;;;;;;3.58;1.20;;;;;;;;;;6229638;22;20027;-77
2023/04/15 14:47:33;;;;;;;3.13;1.15;;;;;;;;;;6234226;23;20012;-78
2023/04/15 14:49:58;;;;;;;2.13;1.10;;;;;;;;;;6230468;23;20054;-78
2023/04/15 14:52:24;;;;;;;2.90;1.10;;;;;;;;;;6233614;22;20008;-77
2023/04/15 14:54:50;;;;;;;2.00;1.10;;;;;;;;;;6232948;23;20134;-78
2023/04/15 14:57:15;;;;;;;3.50;1.25;;;;;;;;;;6239624;22;20011;-76
2023/04/15 14:59:41;;;;;;;2.75;1.20;;;;;;;;;;6263454;22;20003;-76
2023/04/15 15:02:07;;;;;;;1.55;0.88;;;;;;;;;;6266771;22;20044;-76
2023/04/15 15:14:54;;;;;;;2.30;1.10;;;;;;;;;;6191290;22;20008;-77
2023/04/15 15:17:20;;;;;;;2.15;0.90;;;;;;;;;;6262247;22;20016;-77
2023/04/15 15:19:45;;;;;;;3.72;1.10;;;;;;;;;;6264083;22;20060;-77
2023/04/15 15:22:11;;;;;;;2.97;1.27;;;;;;;;;;6266770;22;20011;-77
2023/04/15 15:24:36;;;;;;;1.60;1.05;;;;;;;;;;6262953;22;20048;-77
2023/04/15 15:27:02;;;;;;;2.63;1.10;;;;;;;;;;6262495;22;20026;-77
2023/04/15 15:29:27;;;;;;;4.32;1.38;;;;;;;;;;6264046;23;19992;-77
2023/04/15 18:14:58;;;;;;;3.38;0.70;;;;;;;;;;6242827;22;20004;-77
2023/04/15 18:17:23;;;;;;;3.42;0.60;;;;;;;;;;6240571;22;20016;-78
2023/04/15 18:19:50;;;;;;;5.38;0.80;;;;;;;;;;6259642;22;20016;-78
2023/04/15 18:22:16;;;;;;;1.02;0.45;;;;;;;;;;6265387;22;19996;-78
2023/04/15 18:24:41;;;;;;;2.40;0.65;;;;;;;;;;6238973;22;20024;-77
2023/04/15 18:27:06;;;;;;;3.95;0.60;;;;;;;;;;6244607;22;20016;-78
2023/04/15 18:29:33;;;;;;;1.63;0.60;;;;;;;;;;6265869;22;20071;-77
2023/04/15 18:31:58;;;;;;;3.33;1.02;;;;;;;;;;6235811;23;20304;-77
2023/04/15 18:52:30;;;;;;;4.43;0.77;;;;;;;;;;6256491;22;20008;-78
2023/04/15 18:54:55;;;;;;;4.88;1.08;;;;;;;;;;6235737;22;19996;-78
2023/04/15 19:20:37;;;;;;;7.90;1.00;;;;;;;;;;6219975;22;20012;-76
2023/04/15 19:23:03;;;;;;;4.22;1.00;;;;;;;;;;6236918;23;20001;-76
2023/04/15 19:25:30;;;;;;;3.20;0.70;;;;;;;;;;6233296;22;20310;-76
2023/04/15 19:27:55;;;;;;;3.75;0.77;;;;;;;;;;6258136;22;19996;-76
2023/04/15 19:30:21;;;;;;;5.28;1.30;;;;;;;;;;6262857;22;19993;-76
